createdAt,value
2022-08-20T00:02:01.415Z,2.90
2022-08-20T00:04:46.974Z,3.20
2022-08-20T00:07:32.505Z,3.25
2022-08-20T00:10:18.343Z,2.97
2022-08-20T00:13:05.669Z,3.28
2022-08-20T00:15:51.588Z,3.15
2022-08-20T00:18:37.746Z,2.85
2022-08-20T00:21:25.469Z,3.00
2022-08-20T00:24:10.687Z,3.38
2022-08-20T00:26:56.215Z,3.05
2022-08-20T00:29:41.794Z,3.42
2022-08-20T00:32:27.262Z,3.42
2022-08-20T00:35:15.785Z,2.88
2022-08-20T00:38:01.349Z,3.40
2022-08-20T00:40:53.763Z,3.20
2022-08-20T00:43:41.746Z,3.10
2022-08-20T00:46:31.267Z,3.78
2022-08-20T00:49:28.030Z,3.30
2022-08-20T00:52:18.291Z,2.88
2022-08-20T00:55:05.608Z,2.92
2022-08-20T00:58:01.116Z,3.42
2022-08-20T01:00:49.565Z,3.00
2022-08-20T01:03:35.609Z,2.97
2022-08-20T01:06:21.230Z,2.72
2022-08-20T01:09:07.322Z,2.90
2022-08-20T01:11:54.052Z,2.78
2022-08-20T01:14:45.583Z,3.20
2022-08-20T01:17:36.351Z,3.05
2022-08-20T01:20:32.019Z,2.63
2022-08-20T01:23:34.653Z,2.80
2022-08-20T01:26:35.943Z,3.13
2022-08-20T01:29:25.463Z,3.20
2022-08-20T01:32:11.077Z,3.05
2022-08-20T01:34:56.713Z,3.15
2022-08-20T01:37:42.501Z,3.25
2022-08-20T01:40:44.789Z,3.22
2022-08-20T01:43:33.287Z,3.13
2022-08-20T01:46:24.549Z,3.53
2022-08-20T01:49:23.192Z,3.38
2022-08-20T01:52:11.437Z,2.88
2022-08-20T01:54:57.479Z,3.15
2022-08-20T01:57:43.942Z,3.13
2022-08-20T02:00:30.277Z,3.70
2022-08-20T02:03:15.975Z,4.50
2022-08-20T02:06:02.146Z,3.08
2022-08-20T02:08:47.541Z,3.10
2022-08-20T02:11:34.394Z,3.50
2022-08-20T02:14:20.447Z,3.17
2022-08-20T02:17:07.003Z,3.33
2022-08-20T02:19:59.071Z,3.50
2022-08-20T02:22:52.582Z,3.10
2022-08-20T02:25:42.029Z,3.13
2022-08-20T02:28:28.148Z,3.42
2022-08-20T02:31:13.698Z,3.47
2022-08-20T02:34:19.735Z,3.20
2022-08-20T02:37:07.162Z,2.97
2022-08-20T02:39:52.488Z,4.20
2022-08-20T02:42:39.305Z,4.28
2022-08-20T02:45:24.875Z,3.97
2022-08-20T02:48:20.711Z,4.40
2022-08-20T02:51:07.694Z,3.60
2022-08-20T02:53:53.117Z,3.65
2022-08-20T02:56:39.534Z,3.55
2022-08-20T02:59:25.009Z,3.35
2022-08-20T03:02:12.084Z,3.35
2022-08-20T03:04:57.417Z,3.30
2022-08-20T03:07:48.943Z,3.70
2022-08-20T03:10:36.129Z,3.58
2022-08-20T03:13:23.133Z,3.40
2022-08-20T03:16:09.336Z,3.33
2022-08-20T03:18:54.757Z,3.58
2022-08-20T03:21:40.922Z,4.38
2022-08-20T03:24:26.654Z,4.00
2022-08-20T03:27:13.486Z,3.70
2022-08-20T03:29:59.193Z,4.60
2022-08-20T03:32:46.097Z,3.67
2022-08-20T03:35:33.323Z,3.45
2022-08-20T03:38:32.216Z,3.25
2022-08-20T03:41:19.144Z,3.83
2022-08-20T03:44:06.824Z,3.75
2022-08-20T03:46:52.223Z,4.07
2022-08-20T03:49:37.652Z,3.95
2022-08-20T03:52:23.386Z,3.70
2022-08-20T03:55:10.465Z,3.58
2022-08-20T03:57:59.554Z,4.15
2022-08-20T04:00:49.576Z,3.75
2022-08-20T04:03:35.266Z,6.75
2022-08-20T04:06:21.031Z,4.78
2022-08-20T04:09:06.564Z,3.33
2022-08-20T04:12:00.172Z,3.53
2022-08-20T04:14:45.569Z,3.58
2022-08-20T04:17:32.713Z,4.57
2022-08-20T04:20:23.131Z,4.07
2022-08-20T04:23:09.811Z,4.10
2022-08-20T04:25:56.611Z,4.50
2022-08-20T04:28:42.153Z,4.78
2022-08-20T04:31:33.364Z,4.55
2022-08-20T04:34:19.454Z,5.35
2022-08-20T04:37:05.364Z,4.28
2022-08-20T04:40:09.992Z,4.05
2022-08-20T04:42:55.486Z,3.83
2022-08-20T04:45:41.413Z,4.38
2022-08-20T04:48:29.163Z,4.72
2022-08-20T04:51:17.997Z,5.25
2022-08-20T04:54:04.407Z,5.50
2022-08-20T04:56:50.020Z,5.68
2022-08-20T04:59:35.547Z,5.03
2022-08-20T05:02:21.770Z,4.82
2022-08-20T05:05:08.745Z,5.53
2022-08-20T05:07:55.938Z,5.13
2022-08-20T05:10:41.968Z,5.70
2022-08-20T05:13:28.113Z,5.43
2022-08-20T05:16:15.252Z,5.38
2022-08-20T05:19:00.835Z,5.45
2022-08-20T05:21:46.155Z,4.95
2022-08-20T05:24:31.485Z,5.80
2022-08-20T05:27:24.721Z,5.15
2022-08-20T05:30:13.632Z,5.15
2022-08-20T05:33:05.243Z,6.10
2022-08-20T05:35:52.849Z,5.65
2022-08-20T05:38:38.749Z,5.30
2022-08-20T05:41:28.524Z,5.63
2022-08-20T05:44:15.599Z,6.05
2022-08-20T05:47:01.963Z,5.53
2022-08-20T05:49:49.643Z,5.07
2022-08-20T05:52:35.305Z,5.13
2022-08-20T05:55:21.169Z,5.13
2022-08-20T05:58:09.346Z,5.03
2022-08-20T06:00:55.557Z,4.95
2022-08-20T06:03:59.825Z,4.85
2022-08-20T06:06:47.128Z,4.97
2022-08-20T06:09:33.408Z,5.18
2022-08-20T06:12:18.659Z,4.85
2022-08-20T06:15:06.061Z,6.00
2022-08-20T06:17:58.410Z,4.65
2022-08-20T06:20:45.928Z,4.75
2022-08-20T06:23:54.152Z,5.55
2022-08-20T06:26:37.534Z,5.75
2022-08-20T06:29:23.026Z,5.35
2022-08-20T06:32:08.486Z,5.25
2022-08-20T06:34:53.796Z,5.13
2022-08-20T06:37:40.412Z,5.22
2022-08-20T06:40:28.667Z,5.28
2022-08-20T06:43:14.397Z,5.03
2022-08-20T06:46:00.645Z,4.85
2022-08-20T06:48:46.237Z,5.22
2022-08-20T06:51:32.076Z,5.60
2022-08-20T06:54:17.580Z,5.63
2022-08-20T06:57:04.001Z,4.60
2022-08-20T06:59:54.291Z,5.22
2022-08-20T07:02:41.242Z,5.68
2022-08-20T07:05:28.560Z,4.80
2022-08-20T07:08:18.560Z,5.00
2022-08-20T07:11:04.632Z,4.65
2022-08-20T07:13:50.160Z,5.05
2022-08-20T07:16:35.716Z,5.07
2022-08-20T07:19:21.565Z,4.80
2022-08-20T07:22:06.978Z,5.65
2022-08-20T07:24:52.491Z,5.03
2022-08-20T07:27:41.305Z,4.97
2022-08-20T07:30:56.550Z,4.63
2022-08-20T07:33:44.332Z,4.78
2022-08-20T07:36:30.637Z,4.90
2022-08-20T07:39:16.675Z,4.80
2022-08-20T07:42:09.862Z,4.35
2022-08-20T07:44:56.927Z,4.35
2022-08-20T07:47:43.301Z,4.70
2022-08-20T07:50:29.275Z,5.03
2022-08-20T07:53:15.170Z,4.53
2022-08-20T07:56:06.073Z,4.57
2022-08-20T07:58:55.702Z,4.13
2022-08-20T08:01:41.094Z,4.80
2022-08-20T08:04:26.578Z,4.22
2022-08-20T08:07:13.025Z,4.65
2022-08-20T08:10:00.585Z,3.97
2022-08-20T08:12:51.027Z,4.50
2022-08-20T08:15:40.921Z,4.60
2022-08-20T08:18:31.962Z,4.05
2022-08-20T08:21:22.657Z,3.78
2022-08-20T08:24:08.215Z,4.13
2022-08-20T08:26:53.586Z,5.25
2022-08-20T08:29:39.258Z,4.43
2022-08-20T08:32:25.140Z,4.20
2022-08-20T08:35:10.727Z,4.18
2022-08-20T08:37:56.073Z,4.40
2022-08-20T08:40:41.951Z,3.80
2022-08-20T08:43:31.791Z,4.65
2022-08-20T08:46:28.704Z,4.35
2022-08-20T08:49:23.332Z,4.53
2022-08-20T08:52:11.564Z,5.15
2022-08-20T08:55:00.363Z,4.03
2022-08-20T08:57:48.155Z,4.40
2022-08-20T09:00:34.837Z,3.95
2022-08-20T09:03:40.193Z,4.45
2022-08-20T09:06:26.496Z,4.60
2022-08-20T09:09:23.589Z,4.00
2022-08-20T09:12:21.434Z,3.67
2022-08-20T09:15:07.409Z,3.88
2022-08-20T09:17:53.328Z,3.67
2022-08-20T09:20:38.822Z,5.00
2022-08-20T09:23:24.189Z,4.10
2022-08-20T09:26:09.896Z,4.60
2022-08-20T09:28:55.436Z,4.20
2022-08-20T09:31:41.227Z,3.63
2022-08-20T09:34:26.560Z,3.67
2022-08-20T09:37:13.120Z,4.20
2022-08-20T09:39:59.850Z,3.75
2022-08-20T09:42:46.367Z,4.18
2022-08-20T09:45:32.788Z,3.58
2022-08-20T09:48:18.485Z,4.63
2022-08-20T09:51:04.162Z,4.43
2022-08-20T09:53:50.265Z,4.30
2022-08-20T09:56:36.249Z,4.80
2022-08-20T09:59:22.004Z,5.00
2022-08-20T10:02:08.417Z,5.47
2022-08-20T10:04:54.059Z,4.95
2022-08-20T10:07:41.195Z,5.05
2022-08-20T10:10:26.899Z,5.65
2022-08-20T10:13:15.352Z,5.47
2022-08-20T10:16:02.380Z,4.65
2022-08-20T10:18:50.818Z,4.20
2022-08-20T10:21:38.880Z,5.25
2022-08-20T10:24:26.282Z,4.90
2022-08-20T10:27:11.935Z,4.78
2022-08-20T10:29:57.448Z,4.43
2022-08-20T10:32:42.932Z,4.32
2022-08-20T10:35:29.866Z,4.22
2022-08-20T10:38:16.042Z,4.60
2022-08-20T10:41:01.693Z,5.80
2022-08-20T10:43:47.550Z,4.95
2022-08-20T10:46:33.522Z,4.65
2022-08-20T10:49:19.135Z,4.88
2022-08-20T10:52:06.210Z,5.03
2022-08-20T10:54:52.945Z,6.80
2022-08-20T10:57:40.911Z,6.18
2022-08-20T11:00:26.999Z,4.50
2022-08-20T11:03:12.630Z,4.47
2022-08-20T11:05:58.080Z,4.90
2022-08-20T11:08:43.734Z,5.28
2022-08-20T11:11:29.296Z,4.72
2022-08-20T11:14:15.803Z,5.32
2022-08-20T11:17:02.382Z,5.97
2022-08-20T11:19:48.958Z,5.10
2022-08-20T11:22:35.409Z,4.82
2022-08-20T11:25:21.790Z,4.97
2022-08-20T11:28:07.939Z,5.57
2022-08-20T11:30:53.426Z,4.55
2022-08-20T11:33:38.874Z,4.90
2022-08-20T11:36:26.546Z,5.32
2022-08-20T11:39:12.597Z,5.22
2022-08-20T11:41:57.973Z,4.53
2022-08-20T11:44:43.764Z,5.00
2022-08-20T11:47:30.305Z,4.88
2022-08-20T11:50:19.635Z,5.82
2022-08-20T11:53:06.110Z,5.43
2022-08-20T11:55:54.054Z,4.82
2022-08-20T11:58:39.588Z,5.65
2022-08-20T12:01:25.020Z,4.22
2022-08-20T12:04:10.583Z,4.57
2022-08-20T12:06:56.028Z,5.35
2022-08-20T12:09:50.970Z,4.95
2022-08-20T12:12:38.909Z,4.85
2022-08-20T12:15:25.418Z,4.85
2022-08-20T12:18:11.374Z,4.75
2022-08-20T12:20:57.056Z,4.90
2022-08-20T12:23:42.503Z,3.97
2022-08-20T12:26:27.844Z,4.28
2022-08-20T12:29:13.353Z,4.45
2022-08-20T12:31:58.644Z,4.15
2022-08-20T12:34:44.477Z,4.60
2022-08-20T12:37:31.377Z,5.07
2022-08-20T12:40:32.146Z,5.47
2022-08-20T12:43:22.834Z,4.22
2022-08-20T12:46:10.577Z,4.25
2022-08-20T12:48:55.841Z,4.05
2022-08-20T12:51:41.188Z,4.63
2022-08-20T12:54:26.841Z,4.50
2022-08-20T12:57:45.467Z,3.88
2022-08-20T13:00:43.173Z,4.60
2022-08-20T13:03:28.920Z,4.32
2022-08-20T13:06:17.658Z,4.40
2022-08-20T13:09:03.349Z,4.88
2022-08-20T13:11:50.188Z,5.57
2022-08-20T13:14:36.418Z,7.85
2022-08-20T13:17:38.927Z,5.85
2022-08-20T13:20:34.183Z,4.68
2022-08-20T13:23:20.023Z,4.60
2022-08-20T13:26:05.466Z,6.50
2022-08-20T13:28:50.944Z,4.70
2022-08-20T13:31:36.489Z,4.45
2022-08-20T13:34:21.725Z,4.13
2022-08-20T13:37:25.063Z,3.80
2022-08-20T13:40:12.626Z,4.50
2022-08-20T13:43:05.972Z,4.45
2022-08-20T13:45:52.341Z,4.18
2022-08-20T13:48:37.911Z,3.83
2022-08-20T13:51:23.292Z,4.65
2022-08-20T13:54:13.200Z,4.00
2022-08-20T13:57:13.950Z,4.30
2022-08-20T13:59:59.345Z,5.07
2022-08-20T14:02:44.993Z,4.57
2022-08-20T14:05:31.128Z,4.13
2022-08-20T14:08:21.061Z,4.03
2022-08-20T14:11:06.421Z,3.75
2022-08-20T14:13:58.387Z,4.53
2022-08-20T14:16:44.828Z,3.92
2022-08-20T14:19:30.234Z,3.70
2022-08-20T14:22:19.147Z,3.75
2022-08-20T14:25:08.439Z,4.53
2022-08-20T14:27:55.233Z,4.18
2022-08-20T14:30:41.332Z,3.95
2022-08-20T14:33:26.882Z,4.10
2022-08-20T14:36:12.149Z,4.63
2022-08-20T14:38:57.753Z,4.35
2022-08-20T14:41:43.225Z,3.53
2022-08-20T14:44:29.970Z,4.10
2022-08-20T14:47:24.072Z,4.50
2022-08-20T14:50:16.274Z,3.55
2022-08-20T14:53:02.787Z,3.90
2022-08-20T14:55:48.437Z,3.63
2022-08-20T14:58:33.742Z,3.58
2022-08-20T15:01:19.279Z,4.07
2022-08-20T15:04:04.513Z,3.85
2022-08-20T15:06:50.498Z,4.47
2022-08-20T15:09:40.258Z,4.30
2022-08-20T15:12:25.779Z,4.00
2022-08-20T15:15:15.829Z,3.90
2022-08-20T15:18:02.149Z,3.90
2022-08-20T15:20:47.806Z,4.40
2022-08-20T15:23:34.632Z,4.50
2022-08-20T15:26:21.894Z,4.20
2022-08-20T15:29:08.164Z,4.28
2022-08-20T15:31:53.529Z,4.10
2022-08-20T15:34:40.894Z,3.95
2022-08-20T15:37:26.507Z,4.07
2022-08-20T15:40:16.060Z,4.13
2022-08-20T15:43:03.552Z,4.05
2022-08-20T15:45:49.204Z,4.00
2022-08-20T15:48:41.258Z,3.97
2022-08-20T15:51:38.118Z,4.70
2022-08-20T15:54:26.340Z,4.40
2022-08-20T15:57:32.476Z,4.40
2022-08-20T16:00:22.599Z,4.30
2022-08-20T16:03:17.705Z,4.32
2022-08-20T16:06:15.599Z,5.20
2022-08-20T16:09:17.642Z,5.68
2022-08-20T16:12:19.616Z,4.90
2022-08-20T16:15:30.286Z,5.18
2022-08-20T16:18:24.914Z,4.40
2022-08-20T16:21:13.666Z,4.00
2022-08-20T16:24:01.050Z,4.40
2022-08-20T16:27:27.267Z,4.50
2022-08-20T16:30:20.922Z,4.03
2022-08-20T16:33:27.642Z,4.82
2022-08-20T16:36:23.898Z,4.75
2022-08-20T16:39:25.533Z,5.43
2022-08-20T16:42:10.871Z,4.38
2022-08-20T16:44:57.510Z,4.75
2022-08-20T16:47:44.766Z,5.82
2022-08-20T16:50:57.666Z,6.00
2022-08-20T16:53:43.238Z,6.43
2022-08-20T16:57:03.563Z,6.50
2022-08-20T17:00:25.609Z,5.43
2022-08-20T17:03:39.505Z,5.97
2022-08-20T17:06:35.459Z,7.43
2022-08-20T17:09:33.520Z,6.35
2022-08-20T17:12:27.900Z,5.00
2022-08-20T17:15:28.825Z,7.13
2022-08-20T17:18:24.004Z,4.82
2022-08-20T17:21:28.275Z,4.90
2022-08-20T17:24:17.155Z,5.25
2022-08-20T17:27:10.206Z,5.70
2022-08-20T17:30:08.156Z,5.45
2022-08-20T17:33:00.570Z,4.68
2022-08-20T17:35:57.038Z,4.75
2022-08-20T17:38:51.811Z,4.40
2022-08-20T17:41:39.829Z,4.70
2022-08-20T17:44:33.608Z,5.07
2022-08-20T17:47:31.151Z,4.50
2022-08-20T17:50:21.886Z,4.68
2022-08-20T17:53:23.001Z,4.85
2022-08-20T17:56:31.713Z,4.13
2022-08-20T18:00:00.739Z,5.20
2022-08-20T18:03:03.103Z,4.90
2022-08-20T18:05:56.902Z,4.97
2022-08-20T18:09:10.547Z,5.75
2022-08-20T18:12:33.906Z,5.10
2022-08-20T18:15:25.552Z,5.28
2022-08-20T18:18:20.783Z,4.78
2022-08-20T18:21:28.529Z,5.25
2022-08-20T18:24:36.841Z,5.07
2022-08-20T18:27:26.182Z,5.10
2022-08-20T18:30:17.550Z,6.68
2022-08-20T18:33:09.148Z,4.60
2022-08-20T18:39:11.890Z,4.95
2022-08-20T18:42:02.000Z,5.28
2022-08-20T18:44:51.198Z,4.13
2022-08-20T18:47:36.962Z,4.40
2022-08-20T18:50:28.824Z,4.75
2022-08-20T18:53:14.809Z,4.75
2022-08-20T18:56:07.805Z,4.30
2022-08-20T18:59:04.075Z,4.00
2022-08-20T19:01:50.085Z,4.65
2022-08-20T19:04:37.567Z,3.97
2022-08-20T19:07:25.771Z,4.53
2022-08-20T19:11:03.568Z,4.53
2022-08-20T19:14:15.463Z,4.18
2022-08-20T19:20:06.340Z,3.67
2022-08-20T19:22:54.074Z,4.17
2022-08-20T19:25:56.995Z,3.72
2022-08-20T19:28:51.082Z,4.15
2022-08-20T19:31:36.957Z,3.85
2022-08-20T19:34:24.229Z,3.92
2022-08-20T19:37:35.138Z,3.92
2022-08-20T19:40:39.289Z,4.05
2022-08-20T19:43:25.611Z,4.47
2022-08-20T19:46:15.467Z,3.10
2022-08-20T19:49:19.953Z,4.07
2022-08-20T19:52:13.373Z,3.20
2022-08-20T19:55:03.607Z,3.95
2022-08-20T19:57:56.025Z,3.70
2022-08-20T20:00:53.492Z,4.25
2022-08-20T20:03:41.474Z,4.25
2022-08-20T20:06:29.149Z,3.42
2022-08-20T20:09:22.264Z,3.80
2022-08-20T20:12:22.705Z,4.15
2022-08-20T20:15:08.886Z,3.92
2022-08-20T20:17:55.100Z,4.45
2022-08-20T20:20:57.768Z,4.15
2022-08-20T20:23:54.561Z,4.28
2022-08-20T20:26:41.429Z,3.20
2022-08-20T20:29:34.777Z,3.78
2022-08-20T20:32:24.839Z,3.10
2022-08-20T20:35:10.544Z,3.03
2022-08-20T20:38:04.009Z,3.97
2022-08-20T20:40:53.549Z,3.42
2022-08-20T20:43:42.239Z,3.38
2022-08-20T20:46:29.707Z,3.42
2022-08-20T20:49:22.512Z,3.47
2022-08-20T20:52:20.167Z,3.55
2022-08-20T20:55:07.984Z,3.15
2022-08-20T20:57:54.214Z,2.63
2022-08-20T21:00:39.692Z,3.42
2022-08-20T21:03:25.093Z,3.28
2022-08-20T21:06:10.805Z,3.90
2022-08-20T21:08:57.726Z,3.80
2022-08-20T21:11:43.580Z,3.80
2022-08-20T21:14:28.916Z,3.85
2022-08-20T21:17:22.662Z,5.13
2022-08-20T21:20:09.071Z,3.95
2022-08-20T21:22:57.310Z,3.70
2022-08-20T21:25:42.768Z,3.88
2022-08-20T21:28:30.149Z,3.72
2022-08-20T21:31:15.979Z,3.45
2022-08-20T21:34:02.176Z,3.72
2022-08-20T21:36:47.921Z,3.83
2022-08-20T21:39:33.256Z,3.90
2022-08-20T21:42:28.325Z,4.18
2022-08-20T21:45:19.381Z,3.78
2022-08-20T21:48:05.365Z,3.60
2022-08-20T21:50:51.385Z,3.88
2022-08-20T21:53:36.951Z,4.43
2022-08-20T21:56:22.781Z,3.53
2022-08-20T21:59:09.574Z,3.72
2022-08-20T22:01:55.630Z,4.05
2022-08-20T22:04:41.355Z,3.88
2022-08-20T22:07:26.545Z,4.07
2022-08-20T22:10:11.896Z,3.75
2022-08-20T22:12:57.458Z,4.00
2022-08-20T22:15:43.148Z,3.63
2022-08-20T22:18:29.210Z,3.70
2022-08-20T22:21:21.946Z,4.75
2022-08-20T22:24:09.837Z,4.30
2022-08-20T22:26:56.043Z,4.18
2022-08-20T22:29:41.912Z,3.55
2022-08-20T22:32:33.704Z,3.47
2022-08-20T22:35:34.797Z,3.38
2022-08-20T22:38:21.203Z,5.38
2022-08-20T22:41:09.681Z,4.40
2022-08-20T22:43:57.053Z,4.00
2022-08-20T22:46:48.058Z,3.55
2022-08-20T22:49:39.722Z,3.67
2022-08-20T22:52:26.647Z,3.92
2022-08-20T22:55:12.784Z,3.75
2022-08-20T22:57:58.609Z,3.40
2022-08-20T23:00:46.758Z,4.15
2022-08-20T23:03:39.876Z,3.80
2022-08-20T23:06:29.026Z,3.70
2022-08-20T23:09:14.403Z,3.75
2022-08-20T23:12:07.025Z,3.15
2022-08-20T23:14:52.763Z,3.60
2022-08-20T23:17:38.577Z,3.55
2022-08-20T23:20:24.231Z,3.30
2022-08-20T23:23:10.450Z,3.47
2022-08-20T23:25:56.436Z,3.08
2022-08-20T23:28:42.012Z,3.10
2022-08-20T23:31:27.507Z,3.20
2022-08-20T23:34:12.795Z,3.30
2022-08-20T23:36:59.981Z,2.88
2022-08-20T23:39:46.567Z,3.08
2022-08-20T23:42:32.301Z,3.35
2022-08-20T23:45:18.175Z,2.90
2022-08-20T23:48:03.932Z,3.00
2022-08-20T23:50:49.491Z,3.45
2022-08-20T23:53:35.435Z,2.97
2022-08-20T23:56:21.149Z,2.95
2022-08-20T23:59:06.505Z,2.70
